createdAt,value
2023-04-20T00:01:59.520Z,10.38
2023-04-20T00:05:03.957Z,10.42
2023-04-20T00:08:12.073Z,10.33
2023-04-20T00:11:20.709Z,10.20
2023-04-20T00:14:27.977Z,10.06
2023-04-20T00:17:32.405Z,10.17
2023-04-20T00:20:37.309Z,10.28
2023-04-20T00:23:47.536Z,10.11
2023-04-20T00:26:56.547Z,10.13
2023-04-20T00:30:00.547Z,10.07
2023-04-20T00:33:07.763Z,10.07
2023-04-20T00:36:11.614Z,10.04
2023-04-20T00:39:15.101Z,9.95
2023-04-20T00:42:18.055Z,9.99
2023-04-20T00:45:22.573Z,9.88
2023-04-20T00:48:26.070Z,9.92
2023-04-20T00:51:30.349Z,9.97
2023-04-20T00:54:35.888Z,9.92
2023-04-20T00:57:42.026Z,9.90
2023-04-20T01:00:44.937Z,9.95
2023-04-20T01:03:48.143Z,10.07
2023-04-20T01:06:51.559Z,10.06
2023-04-20T01:09:54.832Z,9.82
2023-04-20T01:12:58.323Z,9.93
2023-04-20T01:16:02.367Z,9.92
2023-04-20T01:19:06.108Z,9.90
2023-04-20T01:22:12.256Z,9.88
2023-04-20T01:25:16.867Z,9.78
2023-04-20T01:28:24.034Z,9.83
2023-04-20T01:31:32.365Z,9.87
2023-04-20T01:34:35.463Z,9.86
2023-04-20T01:37:40.620Z,9.82
2023-04-20T01:40:44.367Z,9.86
2023-04-20T01:43:49.639Z,9.85
2023-04-20T01:47:00.100Z,9.80
2023-04-20T01:50:18.914Z,9.78
2023-04-20T01:53:35.045Z,9.77
2023-04-20T01:56:51.687Z,9.67
2023-04-20T02:00:13.840Z,9.67
2023-04-20T02:03:25.227Z,9.78
2023-04-20T02:06:40.395Z,9.67
2023-04-20T02:09:47.368Z,9.67
2023-04-20T02:12:58.037Z,9.63
2023-04-20T02:16:13.687Z,9.53
2023-04-20T02:19:20.874Z,9.59
2023-04-20T02:22:29.743Z,9.75
2023-04-20T02:25:46.024Z,9.69
2023-04-20T02:29:06.114Z,9.79
2023-04-20T02:32:25.914Z,9.68
2023-04-20T02:35:31.721Z,9.79
2023-04-20T02:38:36.825Z,9.68
2023-04-20T02:41:44.614Z,9.51
2023-04-20T02:44:57.299Z,9.65
2023-04-20T02:48:11.917Z,9.64
2023-04-20T02:51:22.693Z,9.41
2023-04-20T02:54:32.193Z,9.48
2023-04-20T02:57:38.360Z,9.34
2023-04-20T03:00:53.510Z,9.28
2023-04-20T03:04:13.757Z,9.41
2023-04-20T03:07:25.063Z,9.37
2023-04-20T03:10:48.576Z,9.18
2023-04-20T03:14:09.194Z,9.10
2023-04-20T03:17:43.972Z,8.89
2023-04-20T03:21:23.459Z,9.11
2023-04-20T03:30:09.750Z,9.09
2023-04-20T03:37:50.050Z,9.08
2023-04-20T03:41:21.573Z,9.09
2023-04-20T03:44:28.370Z,9.10
2023-04-20T03:47:34.507Z,9.15
2023-04-20T03:50:37.755Z,9.21
2023-04-20T03:53:41.445Z,9.21
2023-04-20T03:56:46.599Z,9.27
2023-04-20T03:59:49.642Z,9.18
2023-04-20T04:02:55.159Z,9.23
2023-04-20T04:05:58.454Z,9.27
2023-04-20T04:09:02.168Z,9.47
2023-04-20T04:12:05.212Z,9.28
2023-04-20T04:15:08.829Z,9.59
2023-04-20T04:18:11.394Z,9.65
2023-04-20T04:21:14.566Z,9.48
2023-04-20T04:24:17.965Z,9.58
2023-04-20T04:27:22.647Z,9.65
2023-04-20T04:30:25.754Z,9.71
2023-04-20T04:33:29.948Z,9.69
2023-04-20T04:36:32.603Z,9.65
2023-04-20T04:39:36.667Z,9.72
2023-04-20T04:42:39.775Z,9.78
2023-04-20T04:45:42.643Z,9.73
2023-04-20T04:48:47.565Z,9.65
2023-04-20T04:51:51.053Z,9.78
2023-04-20T04:54:54.320Z,9.92
2023-04-20T04:57:58.739Z,9.66
2023-04-20T05:01:08.662Z,9.75
2023-04-20T05:04:42.032Z,9.85
2023-04-20T05:07:47.558Z,9.90
2023-04-20T05:10:51.247Z,9.87
2023-04-20T05:13:57.187Z,10.15
2023-04-20T05:17:04.337Z,9.95
2023-04-20T05:20:14.506Z,9.97
2023-04-20T05:23:17.985Z,10.07
2023-04-20T05:26:25.957Z,10.15
2023-04-20T05:29:28.921Z,10.21
2023-04-20T05:32:33.129Z,10.27
2023-04-20T05:35:43.306Z,10.31
2023-04-20T05:38:47.077Z,10.39
2023-04-20T05:42:18.086Z,10.55
2023-04-20T05:49:15.217Z,10.78
2023-04-20T05:53:42.686Z,10.89
2023-04-20T07:15:17.724Z,17.83
2023-04-20T08:17:42.155Z,14.51
2023-04-20T08:20:51.410Z,14.60
2023-04-20T08:24:13.267Z,14.81
2023-04-20T08:27:21.819Z,14.68
2023-04-20T08:30:32.877Z,14.79
2023-04-20T08:33:59.696Z,14.79
2023-04-20T08:37:26.078Z,14.72
2023-04-20T08:41:13.968Z,14.97
2023-04-20T08:44:22.737Z,15.02
2023-04-20T08:47:34.743Z,14.87
2023-04-20T08:50:51.723Z,15.06
2023-04-20T08:54:09.016Z,14.84
2023-04-20T08:57:36.933Z,15.23
2023-04-20T09:00:56.258Z,15.26
2023-04-20T09:05:16.567Z,15.33
2023-04-20T09:08:00.115Z,15.49
2023-04-20T09:11:42.236Z,15.64
2023-04-20T09:15:03.809Z,15.29
2023-04-20T09:18:31.844Z,15.60
2023-04-20T09:22:13.242Z,15.43
2023-04-20T09:25:51.924Z,15.65
2023-04-20T09:29:51.572Z,15.94
2023-04-20T09:33:25.890Z,15.74
2023-04-20T09:40:26.136Z,16.02
2023-04-20T09:43:44.565Z,15.88
2023-04-20T09:47:02.957Z,16.03
2023-04-20T09:50:29.022Z,16.26
2023-04-20T09:53:59.367Z,16.24
2023-04-20T09:58:20.427Z,16.39
2023-04-20T12:06:19.963Z,18.26
2023-04-20T12:10:09.505Z,17.86
2023-04-20T13:50:28.971Z,18.52
2023-04-20T13:53:00.303Z,18.67
2023-04-20T13:56:08.407Z,18.63
2023-04-20T13:59:24.053Z,18.48
2023-04-20T14:02:31.003Z,18.12
2023-04-20T14:05:51.065Z,18.06
2023-04-20T14:13:12.055Z,18.24
2023-04-20T14:16:56.045Z,18.31
2023-04-20T14:20:18.364Z,18.43
2023-04-20T14:28:16.397Z,18.25
2023-04-20T14:35:16.820Z,18.49
2023-04-20T14:38:29.015Z,18.53
2023-04-20T14:42:20.857Z,18.47
2023-04-20T14:46:11.168Z,18.52
2023-04-20T14:49:43.788Z,18.74
2023-04-20T14:52:53.807Z,18.53
2023-04-20T14:56:03.907Z,18.69
2023-04-20T14:59:28.554Z,18.34
2023-04-20T15:02:43.193Z,18.52
2023-04-20T15:05:58.545Z,18.48
2023-04-20T15:09:14.309Z,18.46
2023-04-20T15:24:27.915Z,18.73
2023-04-20T15:39:58.213Z,18.82
2023-04-20T15:43:20.542Z,19.05
2023-04-20T15:46:42.533Z,18.75
2023-04-20T15:50:22.308Z,18.65
2023-04-20T15:53:48.859Z,18.75
2023-04-20T15:56:58.342Z,18.08
2023-04-20T16:00:54.001Z,18.03
2023-04-20T16:04:09.953Z,17.88
2023-04-20T16:07:23.402Z,17.65
2023-04-20T16:10:32.348Z,17.68
2023-04-20T16:13:49.233Z,17.66
2023-04-20T16:20:40.733Z,17.35
2023-04-20T16:24:18.492Z,17.41
2023-04-20T16:27:33.734Z,17.39
2023-04-20T16:31:18.996Z,17.32
2023-04-20T16:34:55.507Z,17.32
2023-04-20T16:38:23.651Z,17.32
2023-04-20T16:41:48.017Z,17.09
2023-04-20T16:45:15.353Z,17.26
2023-04-20T16:48:44.175Z,17.23
2023-04-20T16:59:27.576Z,16.96
2023-04-20T17:03:19.508Z,16.77
2023-04-20T17:16:51.274Z,16.62
2023-04-20T17:20:31.077Z,16.81
2023-04-20T17:23:48.197Z,16.72
2023-04-20T17:31:10.754Z,16.63
2023-04-20T17:34:51.004Z,16.58
2023-04-20T17:38:17.560Z,16.36
2023-04-20T17:41:32.321Z,16.40
2023-04-20T17:45:23.695Z,16.48
2023-04-20T17:48:35.079Z,16.36
2023-04-20T17:52:42.334Z,16.33
2023-04-20T17:55:51.619Z,16.46
2023-04-20T18:06:26.484Z,16.19
2023-04-20T18:13:33.635Z,16.04
2023-04-20T18:20:32.501Z,16.30
2023-04-20T18:23:56.841Z,16.25
2023-04-20T18:27:08.198Z,16.05
2023-04-20T18:30:39.830Z,16.17
2023-04-20T18:34:04.037Z,16.23
2023-04-20T18:37:37.143Z,16.22
2023-04-20T18:41:19.209Z,16.11
2023-04-20T18:44:42.684Z,15.80
2023-04-20T18:47:59.454Z,15.91
2023-04-20T18:54:50.204Z,16.01
2023-04-20T18:58:06.250Z,15.88
2023-04-20T19:01:58.488Z,15.81
2023-04-20T19:05:08.572Z,15.71
2023-04-20T19:08:22.327Z,15.79
2023-04-20T19:11:34.303Z,15.65
2023-04-20T19:14:49.499Z,15.73
2023-04-20T19:18:03.531Z,15.76
2023-04-20T19:21:08.190Z,15.73
2023-04-20T19:24:15.940Z,15.72
2023-04-20T19:27:19.961Z,15.59
2023-04-20T19:30:38.810Z,15.61
2023-04-20T19:33:44.541Z,15.67
2023-04-20T19:36:52.618Z,15.40
2023-04-20T19:40:00.317Z,15.29
2023-04-20T19:43:03.789Z,15.38
2023-04-20T19:46:18.282Z,15.22
2023-04-20T19:49:30.573Z,15.33
2023-04-20T19:52:35.952Z,15.21
2023-04-20T19:55:41.495Z,15.39
2023-04-20T19:58:46.902Z,15.37
2023-04-20T20:02:04.368Z,15.27
2023-04-20T20:05:09.362Z,15.33
2023-04-20T20:08:13.024Z,15.31
2023-04-20T20:11:26.415Z,15.17
2023-04-20T20:14:31.813Z,15.20
2023-04-20T20:17:37.547Z,15.17
2023-04-20T20:20:42.906Z,15.14
2023-04-20T20:23:46.600Z,14.81
2023-04-20T20:26:50.086Z,15.04
2023-04-20T20:29:56.752Z,15.00
2023-04-20T20:33:00.893Z,14.93
2023-04-20T20:36:12.422Z,14.79
2023-04-20T20:39:17.561Z,14.76
2023-04-20T20:42:22.662Z,14.81
2023-04-20T20:45:25.530Z,14.67
2023-04-20T20:48:31.570Z,14.69
2023-04-20T20:51:34.632Z,14.65
2023-04-20T20:54:37.296Z,14.65
2023-04-20T20:57:39.889Z,14.64
2023-04-20T21:00:48.945Z,14.45
2023-04-20T21:03:51.930Z,14.54
2023-04-20T21:07:02.002Z,14.51
2023-04-20T21:10:06.767Z,14.51
2023-04-20T21:13:10.193Z,14.50
2023-04-20T21:16:12.873Z,14.38
2023-04-20T21:19:15.784Z,14.21
2023-04-20T21:22:20.647Z,14.30
2023-04-20T21:25:23.811Z,14.26
2023-04-20T21:28:29.039Z,14.14
2023-04-20T21:31:37.379Z,14.18
2023-04-20T21:34:45.437Z,14.14
2023-04-20T21:37:48.805Z,14.11
2023-04-20T21:41:03.754Z,14.09
2023-04-20T21:44:15.845Z,14.06
2023-04-20T21:47:19.548Z,13.88
2023-04-20T21:50:30.065Z,13.94
2023-04-20T21:53:35.900Z,13.82
2023-04-20T21:56:41.940Z,13.71
2023-04-20T21:59:47.376Z,13.75
2023-04-20T22:02:53.356Z,13.43
2023-04-20T22:05:56.693Z,13.72
2023-04-20T22:09:04.067Z,13.51
2023-04-20T22:12:09.686Z,13.52
2023-04-20T22:15:14.630Z,13.59
2023-04-20T22:18:19.523Z,13.50
2023-04-20T22:21:22.098Z,13.61
2023-04-20T22:24:27.209Z,13.51
2023-04-20T22:27:33.580Z,13.54
2023-04-20T22:30:47.347Z,13.37
2023-04-20T22:33:53.944Z,13.30
2023-04-20T22:37:02.291Z,13.51
2023-04-20T22:40:20.761Z,13.44
2023-04-20T22:43:41.871Z,13.16
2023-04-20T22:47:02.757Z,13.10
2023-04-20T22:50:20.078Z,13.10
2023-04-20T22:53:49.559Z,13.36
2023-04-20T22:57:04.356Z,13.32
2023-04-20T23:00:23.563Z,13.10
2023-04-20T23:03:37.292Z,13.05
2023-04-20T23:06:45.763Z,13.04
2023-04-20T23:10:07.772Z,13.17
2023-04-20T23:13:29.585Z,13.03
2023-04-20T23:16:39.554Z,12.95
2023-04-20T23:19:49.750Z,13.10
2023-04-20T23:23:16.777Z,13.02
2023-04-20T23:26:35.300Z,12.76
2023-04-20T23:29:49.122Z,13.03
2023-04-20T23:32:56.225Z,13.02
2023-04-20T23:36:33.747Z,12.98
2023-04-20T23:39:54.916Z,12.95
2023-04-20T23:43:25.307Z,12.91
2023-04-20T23:46:39.439Z,12.91
2023-04-20T23:49:44.971Z,12.76
2023-04-20T23:52:55.639Z,12.92
2023-04-20T23:56:02.995Z,12.77
2023-04-20T23:59:10.054Z,12.83
